createdAt,value
2023-05-08T00:02:44.178Z,53.90
2023-05-08T00:05:45.758Z,53.99
2023-05-08T00:08:47.369Z,54.07
2023-05-08T00:11:49.005Z,53.90
2023-05-08T00:14:50.519Z,54.05
2023-05-08T00:17:52.135Z,53.99
2023-05-08T00:20:53.964Z,53.94
2023-05-08T00:23:55.544Z,54.02
2023-05-08T00:26:57.079Z,53.98
2023-05-08T00:29:58.861Z,53.99
2023-05-08T00:33:00.511Z,54.03
2023-05-08T00:36:02.860Z,54.05
2023-05-08T00:39:04.442Z,53.90
2023-05-08T00:42:06.024Z,54.00
2023-05-08T00:45:08.547Z,53.94
2023-05-08T00:48:10.118Z,54.04
2023-05-08T00:51:12.042Z,53.99
2023-05-08T00:54:14.417Z,54.04
2023-05-08T00:57:16.859Z,54.00
2023-05-08T01:00:19.510Z,54.02
2023-05-08T01:03:22.222Z,53.88
2023-05-08T01:06:23.864Z,54.03
2023-05-08T01:09:25.514Z,54.05
2023-05-08T01:12:48.244Z,54.21
2023-05-08T01:16:23.506Z,54.00
2023-05-08T01:19:43.004Z,53.99
2023-05-08T01:22:53.477Z,54.01
2023-05-08T01:26:01.061Z,53.84
2023-05-08T01:29:27.745Z,54.27
2023-05-08T01:32:39.261Z,54.31
2023-05-08T01:35:49.744Z,54.07
2023-05-08T01:39:07.157Z,54.06
2023-05-08T01:42:23.414Z,54.09
2023-05-08T01:45:34.689Z,54.11
2023-05-08T01:48:41.958Z,54.00
2023-05-08T01:51:46.088Z,53.96
2023-05-08T01:54:58.976Z,54.17
2023-05-08T01:58:04.285Z,54.14
2023-05-08T02:01:06.241Z,54.04
2023-05-08T02:04:09.912Z,54.20
2023-05-08T02:07:11.684Z,54.24
2023-05-08T02:10:15.699Z,54.04
2023-05-08T02:13:20.296Z,54.03
2023-05-08T02:16:22.961Z,54.04
2023-05-08T02:19:26.386Z,54.20
2023-05-08T02:22:28.690Z,54.24
2023-05-08T02:25:31.834Z,54.27
2023-05-08T02:28:34.688Z,54.28
2023-05-08T02:31:37.659Z,54.27
2023-05-08T02:34:45.224Z,54.15
2023-05-08T02:37:55.615Z,53.98
2023-05-08T02:41:01.083Z,54.42
2023-05-08T02:44:02.863Z,54.50
2023-05-08T02:47:20.203Z,54.20
2023-05-08T02:50:32.507Z,54.26
2023-05-08T02:53:52.221Z,54.21
2023-05-08T02:57:00.200Z,54.31
2023-05-08T03:00:14.839Z,54.44
2023-05-08T03:03:36.313Z,54.40
2023-05-08T03:06:45.591Z,54.36
2023-05-08T03:09:51.006Z,54.30
2023-05-08T03:12:55.137Z,54.40
2023-05-08T03:16:01.186Z,54.41
2023-05-08T03:19:07.673Z,54.24
2023-05-08T03:22:10.313Z,54.43
2023-05-08T03:25:14.391Z,54.50
2023-05-08T03:28:17.744Z,54.61
2023-05-08T03:31:23.255Z,54.62
2023-05-08T03:34:25.673Z,54.50
2023-05-08T03:37:28.743Z,54.68
2023-05-08T03:40:30.474Z,54.64
2023-05-08T03:43:32.928Z,54.51
2023-05-08T03:46:35.991Z,54.55
2023-05-08T03:49:38.834Z,54.64
2023-05-08T03:52:40.442Z,54.68
2023-05-08T03:55:42.083Z,54.56
2023-05-08T03:59:02.634Z,54.71
2023-05-08T04:02:42.403Z,54.65
2023-05-08T04:06:10.186Z,54.66
2023-05-08T04:09:24.829Z,54.53
2023-05-08T04:12:39.781Z,54.83
2023-05-08T04:16:06.740Z,54.69
2023-05-08T04:19:27.464Z,54.78
2023-05-08T04:22:30.494Z,54.66
2023-05-08T04:25:36.166Z,54.59
2023-05-08T04:28:38.027Z,54.73
2023-05-08T04:31:40.350Z,54.86
2023-05-08T04:34:42.084Z,54.72
2023-05-08T04:37:44.085Z,54.67
2023-05-08T04:40:45.744Z,54.70
2023-05-08T04:43:47.468Z,54.85
2023-05-08T04:46:50.242Z,54.63
2023-05-08T04:49:52.214Z,54.64
2023-05-08T04:52:53.823Z,54.73
2023-05-08T04:55:55.436Z,54.75
2023-05-08T04:58:56.939Z,54.72
2023-05-08T05:01:58.717Z,54.98
2023-05-08T05:05:01.438Z,54.61
2023-05-08T05:08:04.261Z,54.67
2023-05-08T05:11:05.823Z,54.81
2023-05-08T05:14:07.557Z,54.67
2023-05-08T05:17:09.115Z,54.67
2023-05-08T05:20:11.334Z,54.64
2023-05-08T05:23:12.881Z,54.65
2023-05-08T05:26:14.464Z,54.53
2023-05-08T05:29:16.006Z,54.65
2023-05-08T05:32:17.735Z,54.63
2023-05-08T05:35:19.336Z,54.55
2023-05-08T05:38:20.969Z,54.58
2023-05-08T05:41:22.548Z,54.65
2023-05-08T05:44:24.275Z,54.69
2023-05-08T05:47:26.091Z,54.81
2023-05-08T05:50:28.333Z,54.62
2023-05-08T05:53:29.874Z,54.43
2023-05-08T05:56:31.481Z,54.53
2023-05-08T05:59:33.241Z,54.55
2023-05-08T06:02:36.941Z,54.64
2023-05-08T06:05:38.580Z,54.41
2023-05-08T06:08:40.132Z,54.65
2023-05-08T06:11:42.169Z,54.51
2023-05-08T06:14:43.878Z,54.54
2023-05-08T06:17:45.509Z,54.37
2023-05-08T06:20:47.094Z,54.55
2023-05-08T06:23:48.737Z,54.48
2023-05-08T06:26:50.282Z,54.44
2023-05-08T06:29:53.270Z,54.37
2023-05-08T06:32:54.931Z,54.37
2023-05-08T06:35:56.532Z,54.45
2023-05-08T06:38:58.123Z,54.51
2023-05-08T06:41:59.702Z,54.33
2023-05-08T06:45:01.549Z,54.55
2023-05-08T06:48:03.291Z,54.60
2023-05-08T06:51:04.863Z,54.53
2023-05-08T06:54:08.306Z,54.56
2023-05-08T06:57:11.482Z,54.46
2023-05-08T07:00:15.024Z,54.40
2023-05-08T07:03:16.541Z,54.52
2023-05-08T07:06:18.093Z,54.37
2023-05-08T07:09:19.713Z,54.56
2023-05-08T07:12:21.304Z,54.62
2023-05-08T07:15:26.522Z,54.52
2023-05-08T07:18:28.728Z,54.40
2023-05-08T07:21:30.706Z,54.35
2023-05-08T07:24:33.122Z,54.36
2023-05-08T07:27:35.906Z,54.15
2023-05-08T07:30:37.570Z,54.31
2023-05-08T07:33:39.128Z,54.15
2023-05-08T07:36:40.749Z,54.32
2023-05-08T07:39:42.334Z,54.25
2023-05-08T07:42:45.071Z,54.31
2023-05-08T07:45:46.613Z,54.16
2023-05-08T07:48:48.944Z,54.09
2023-05-08T07:51:50.450Z,53.92
2023-05-08T07:54:52.582Z,53.82
2023-05-08T07:57:54.159Z,53.80
2023-05-08T08:00:55.739Z,53.92
2023-05-08T08:03:57.505Z,53.77
2023-05-08T08:06:59.420Z,53.77
2023-05-08T08:10:03.588Z,53.72
2023-05-08T08:13:05.498Z,53.69
2023-05-08T08:16:07.255Z,53.65
2023-05-08T08:19:10.935Z,53.54
2023-05-08T08:22:12.605Z,53.35
2023-05-08T08:25:14.466Z,53.42
2023-05-08T08:28:17.997Z,53.34
2023-05-08T08:31:20.151Z,53.31
2023-05-08T08:34:22.271Z,53.47
2023-05-08T08:37:24.363Z,53.37
2023-05-08T08:40:26.194Z,53.17
2023-05-08T08:43:28.665Z,53.38
2023-05-08T08:46:33.291Z,53.37
2023-05-08T08:49:36.398Z,53.08
2023-05-08T08:53:00.810Z,53.38
2023-05-08T08:56:06.314Z,53.22
2023-05-08T08:59:08.777Z,53.30
2023-05-08T09:02:13.751Z,53.13
2023-05-08T09:05:15.831Z,53.17
2023-05-08T09:08:18.765Z,53.16
2023-05-08T09:11:21.110Z,52.82
2023-05-08T09:14:24.521Z,52.91
2023-05-08T09:17:26.136Z,52.78
2023-05-08T09:20:28.733Z,52.52
2023-05-08T09:23:30.256Z,52.62
2023-05-08T09:26:36.073Z,52.63
2023-05-08T09:29:37.646Z,52.51
2023-05-08T09:32:42.907Z,52.51
2023-05-08T09:35:44.522Z,52.69
2023-05-08T09:38:46.069Z,52.74
2023-05-08T09:42:00.803Z,52.50
2023-05-08T09:45:02.424Z,52.25
2023-05-08T09:48:04.237Z,52.03
2023-05-08T09:51:07.055Z,52.13
2023-05-08T09:54:18.187Z,51.91
2023-05-08T09:57:19.840Z,51.89
2023-05-08T10:00:22.262Z,52.02
2023-05-08T10:03:23.858Z,51.88
2023-05-08T10:06:26.079Z,51.58
2023-05-08T10:09:35.613Z,51.62
2023-05-08T10:12:44.665Z,51.66
2023-05-08T10:15:53.907Z,51.74
2023-05-08T10:19:06.015Z,51.73
2023-05-08T10:22:11.423Z,51.42
2023-05-08T10:25:17.109Z,51.47
2023-05-08T10:28:29.238Z,51.34
2023-05-08T10:31:44.027Z,51.11
2023-05-08T10:34:49.407Z,50.84
2023-05-08T10:37:53.000Z,50.96
2023-05-08T10:40:58.089Z,50.93
2023-05-08T10:44:02.527Z,50.85
2023-05-08T10:47:45.882Z,50.75
2023-05-08T10:51:10.219Z,50.58
2023-05-08T10:54:47.239Z,50.40
2023-05-08T10:58:29.451Z,50.51
2023-05-08T11:01:31.063Z,50.58
2023-05-08T11:04:33.602Z,50.21
2023-05-08T11:07:59.571Z,50.25
2023-05-08T11:11:02.425Z,50.27
2023-05-08T11:14:06.697Z,50.49
2023-05-08T11:17:09.504Z,49.98
2023-05-08T11:20:11.348Z,50.36
2023-05-08T11:23:23.720Z,50.14
2023-05-08T11:26:40.486Z,50.09
2023-05-08T11:29:42.638Z,49.92
2023-05-08T11:33:07.627Z,49.86
2023-05-08T11:36:17.173Z,49.57
2023-05-08T11:39:18.723Z,49.51
2023-05-08T11:42:29.182Z,49.52
2023-05-08T11:45:32.461Z,49.62
2023-05-08T11:48:35.962Z,49.07
2023-05-08T11:51:38.472Z,49.52
2023-05-08T11:54:40.194Z,49.36
2023-05-08T11:57:41.779Z,49.27
2023-05-08T12:00:45.419Z,49.20
2023-05-08T12:03:47.468Z,49.05
2023-05-08T12:06:51.475Z,49.20
2023-05-08T12:09:53.118Z,49.30
2023-05-08T12:12:54.659Z,48.85
2023-05-08T12:15:58.188Z,48.77
2023-05-08T12:18:59.868Z,48.61
2023-05-08T12:22:01.390Z,48.60
2023-05-08T12:25:05.250Z,48.94
2023-05-08T12:28:07.951Z,48.55
2023-05-08T12:31:10.401Z,48.38
2023-05-08T12:34:12.781Z,48.79
2023-05-08T12:37:24.379Z,48.76
2023-05-08T12:40:33.825Z,48.51
2023-05-08T12:43:36.394Z,48.38
2023-05-08T12:46:46.614Z,48.59
2023-05-08T12:49:52.748Z,48.34
2023-05-08T12:52:55.048Z,48.40
2023-05-08T12:56:03.515Z,48.22
2023-05-08T12:59:05.114Z,48.41
2023-05-08T13:02:24.247Z,48.28
2023-05-08T13:05:26.118Z,48.32
2023-05-08T13:08:37.107Z,48.38
2023-05-08T13:11:39.644Z,48.36
2023-05-08T13:14:41.178Z,47.87
2023-05-08T13:17:43.404Z,47.98
2023-05-08T13:20:46.580Z,48.11
2023-05-08T13:23:48.549Z,47.76
2023-05-08T13:26:50.110Z,47.62
2023-05-08T13:29:51.746Z,47.79
2023-05-08T13:32:53.958Z,47.64
2023-05-08T13:35:56.389Z,47.43
2023-05-08T13:38:57.940Z,47.60
2023-05-08T13:41:59.525Z,47.19
2023-05-08T13:45:01.711Z,47.73
2023-05-08T13:48:03.457Z,47.54
2023-05-08T13:51:05.343Z,47.57
2023-05-08T13:54:06.976Z,47.23
2023-05-08T13:57:11.930Z,46.88
2023-05-08T14:00:14.339Z,47.06
2023-05-08T14:03:15.975Z,47.09
2023-05-08T14:06:17.590Z,47.06
2023-05-08T14:09:19.204Z,47.27
2023-05-08T14:12:20.776Z,46.75
2023-05-08T14:15:26.850Z,47.05
2023-05-08T14:18:33.270Z,46.79
2023-05-08T14:21:35.153Z,46.66
2023-05-08T14:24:36.749Z,46.93
2023-05-08T14:27:38.673Z,46.59
2023-05-08T14:30:40.227Z,46.41
2023-05-08T14:33:41.802Z,46.69
2023-05-08T14:36:43.424Z,46.64
2023-05-08T14:39:45.574Z,46.48
2023-05-08T14:42:47.085Z,46.71
2023-05-08T14:45:49.226Z,46.35
2023-05-08T14:48:51.339Z,46.22
2023-05-08T14:51:52.855Z,46.26
2023-05-08T14:54:54.649Z,46.27
2023-05-08T14:57:56.549Z,45.97
2023-05-08T15:00:58.197Z,46.29
2023-05-08T15:03:59.830Z,45.87
2023-05-08T15:07:01.473Z,46.02
2023-05-08T15:10:03.945Z,46.28
2023-05-08T15:13:05.654Z,45.80
2023-05-08T15:16:07.357Z,45.81
2023-05-08T15:19:09.590Z,45.67
2023-05-08T15:22:11.903Z,45.77
2023-05-08T15:25:13.607Z,45.50
2023-05-08T15:28:15.330Z,45.70
2023-05-08T15:31:17.600Z,45.92
2023-05-08T15:34:19.208Z,45.62
2023-05-08T15:37:23.619Z,45.43
2023-05-08T15:40:25.119Z,45.71
2023-05-08T15:43:26.846Z,45.67
2023-05-08T15:46:28.490Z,45.66
2023-05-08T15:49:30.011Z,45.39
2023-05-08T15:52:31.602Z,45.20
2023-05-08T15:55:33.146Z,45.17
2023-05-08T15:58:36.801Z,45.47
2023-05-08T16:01:42.322Z,45.07
2023-05-08T16:04:44.112Z,45.38
2023-05-08T16:07:45.801Z,45.38
2023-05-08T16:10:48.473Z,44.93
2023-05-08T16:13:50.303Z,44.88
2023-05-08T16:16:51.834Z,45.06
2023-05-08T16:19:53.398Z,45.09
2023-05-08T16:22:56.016Z,45.23
2023-05-08T16:25:57.637Z,44.71
2023-05-08T16:28:59.170Z,45.00
2023-05-08T16:32:00.906Z,44.73
2023-05-08T16:35:02.663Z,44.79
2023-05-08T16:38:04.780Z,45.05
2023-05-08T16:41:09.137Z,44.80
2023-05-08T16:44:10.658Z,44.59
2023-05-08T16:47:12.255Z,44.97
2023-05-08T16:50:13.919Z,44.98
2023-05-08T16:53:15.553Z,44.90
2023-05-08T16:56:17.069Z,44.65
2023-05-08T16:59:18.623Z,44.88
2023-05-08T17:02:20.363Z,44.89
2023-05-08T17:05:22.209Z,44.69
2023-05-08T17:08:23.767Z,44.74
2023-05-08T17:11:25.870Z,44.62
2023-05-08T17:14:27.446Z,44.38
2023-05-08T17:17:29.145Z,44.71
2023-05-08T17:20:31.136Z,44.78
2023-05-08T17:23:32.809Z,44.72
2023-05-08T17:26:34.551Z,44.25
2023-05-08T17:29:36.241Z,44.40
2023-05-08T17:32:38.010Z,44.74
2023-05-08T17:35:43.013Z,44.33
2023-05-08T17:38:46.077Z,44.22
2023-05-08T17:41:49.344Z,44.62
2023-05-08T17:44:51.045Z,44.65
2023-05-08T17:47:52.828Z,44.32
2023-05-08T17:50:54.578Z,44.28
2023-05-08T17:53:56.991Z,44.51
2023-05-08T17:56:58.507Z,44.62
2023-05-08T18:00:00.201Z,44.45
2023-05-08T18:03:02.118Z,44.49
2023-05-08T18:06:06.772Z,44.41
2023-05-08T18:09:09.117Z,44.42
2023-05-08T18:12:11.048Z,44.63
2023-05-08T18:15:13.038Z,44.67
2023-05-08T18:18:14.580Z,44.36
2023-05-08T18:21:16.365Z,44.39
2023-05-08T18:24:18.000Z,44.43
2023-05-08T18:27:19.548Z,44.55
2023-05-08T18:30:21.175Z,44.42
2023-05-08T18:33:22.761Z,44.67
2023-05-08T18:36:24.456Z,44.73
2023-05-08T18:39:26.318Z,44.48
2023-05-08T18:42:28.118Z,44.77
2023-05-08T18:45:29.651Z,44.48
2023-05-08T18:48:31.460Z,44.64
2023-05-08T18:51:33.018Z,44.53
2023-05-08T18:54:34.591Z,44.50
2023-05-08T18:57:36.324Z,44.58
2023-05-08T19:00:37.966Z,44.61
2023-05-08T19:03:39.604Z,44.66
2023-05-08T19:06:41.395Z,44.60
2023-05-08T19:09:43.038Z,44.67
2023-05-08T19:12:45.513Z,44.62
2023-05-08T19:15:47.174Z,44.73
2023-05-08T19:18:48.879Z,44.54
2023-05-08T19:21:50.475Z,44.56
2023-05-08T19:24:52.069Z,44.66
2023-05-08T19:27:53.678Z,44.64
2023-05-08T19:30:55.349Z,44.72
2023-05-08T19:33:57.456Z,44.73
2023-05-08T19:36:59.099Z,44.57
2023-05-08T19:40:00.785Z,44.53
2023-05-08T19:43:02.313Z,44.69
2023-05-08T19:46:03.929Z,44.55
2023-05-08T19:49:05.958Z,44.75
2023-05-08T19:52:07.563Z,44.88
2023-05-08T19:55:09.351Z,44.77
2023-05-08T19:58:10.924Z,44.93
2023-05-08T20:01:12.585Z,44.77
2023-05-08T20:04:14.170Z,44.86
2023-05-08T20:07:16.085Z,44.90
2023-05-08T20:10:18.341Z,44.76
2023-05-08T20:13:21.474Z,44.94
2023-05-08T20:16:24.721Z,44.89
2023-05-08T20:19:27.572Z,44.88
2023-05-08T20:22:30.857Z,44.85
2023-05-08T20:25:32.746Z,44.92
2023-05-08T20:28:35.804Z,45.10
2023-05-08T20:31:37.619Z,44.97
2023-05-08T20:34:39.690Z,45.01
2023-05-08T20:37:46.058Z,45.10
2023-05-08T20:40:48.580Z,44.87
2023-05-08T20:43:50.274Z,44.99
2023-05-08T20:46:51.992Z,45.20
2023-05-08T20:49:54.199Z,45.32
2023-05-08T20:52:57.024Z,45.18
2023-05-08T20:56:03.982Z,45.22
2023-05-08T20:59:05.618Z,45.12
2023-05-08T21:02:07.574Z,45.14
2023-05-08T21:05:09.597Z,45.38
2023-05-08T21:08:12.066Z,45.05
2023-05-08T21:11:16.876Z,45.23
2023-05-08T21:14:19.114Z,45.20
2023-05-08T21:17:21.609Z,45.37
2023-05-08T21:20:24.212Z,45.28
2023-05-08T21:23:26.260Z,45.18
2023-05-08T21:26:27.837Z,45.19
2023-05-08T21:29:29.485Z,45.19
2023-05-08T21:32:31.071Z,45.34
2023-05-08T21:35:32.656Z,45.44
2023-05-08T21:38:34.260Z,45.71
2023-05-08T21:41:35.861Z,45.53
2023-05-08T21:44:37.433Z,45.58
2023-05-08T21:47:39.049Z,45.37
2023-05-08T21:50:40.620Z,45.57
2023-05-08T21:53:42.162Z,45.31
2023-05-08T21:56:43.701Z,45.29
2023-05-08T21:59:45.297Z,45.54
2023-05-08T22:02:47.276Z,45.32
2023-05-08T22:05:48.967Z,45.43
2023-05-08T22:08:50.607Z,45.27
2023-05-08T22:11:52.166Z,45.18
2023-05-08T22:14:53.808Z,45.48
2023-05-08T22:17:56.154Z,44.91
2023-05-08T22:20:57.772Z,45.27
2023-05-08T22:23:59.364Z,45.34
2023-05-08T22:27:00.981Z,45.32
2023-05-08T22:30:02.780Z,45.34
2023-05-08T22:33:04.373Z,45.38
2023-05-08T22:36:06.367Z,45.09
2023-05-08T22:39:10.176Z,45.41
2023-05-08T22:42:11.811Z,45.12
2023-05-08T22:45:14.830Z,45.52
2023-05-08T22:48:16.796Z,45.45
2023-05-08T22:51:18.795Z,45.40
2023-05-08T22:54:20.382Z,45.28
2023-05-08T22:57:22.003Z,45.53
2023-05-08T23:00:24.870Z,45.47
2023-05-08T23:03:26.734Z,45.09
2023-05-08T23:06:28.234Z,45.59
2023-05-08T23:09:30.918Z,45.46
2023-05-08T23:12:32.602Z,45.45
2023-05-08T23:15:34.178Z,45.20
2023-05-08T23:18:35.901Z,45.30
2023-05-08T23:21:37.468Z,45.27
2023-05-08T23:24:39.026Z,45.57
2023-05-08T23:27:41.049Z,45.37
2023-05-08T23:30:42.639Z,45.19
2023-05-08T23:33:44.226Z,45.46
2023-05-08T23:36:45.927Z,45.57
2023-05-08T23:39:47.486Z,45.60
2023-05-08T23:42:49.043Z,45.16
2023-05-08T23:45:50.615Z,45.33
2023-05-08T23:48:52.428Z,45.29
2023-05-08T23:51:53.940Z,45.41
2023-05-08T23:54:55.552Z,45.28
2023-05-08T23:57:57.424Z,45.58
